アムステルダム/スキポール の空港の天気 - METARとTAF

スキポール空港(アムステルダム) ( EHAM / AMS ) - オランダ アムステルダム
飛行場実況気象(Metar)
観測時間09/26 23:25 CEST (09/26 21:25 UTC)
風向・風速北北西 7m/s
視程10km以上
天気現象弱い雨
少しの雲 雲底高度 760m
全天の4割程度の雲 雲底高度 980m
全天の8割程度の雲 雲底高度 1370m
気温13℃
湿度82%
気圧1000hPa
METAREHAM 262125Z 34014KT 310V010 9999 -RA FEW025 SCT032 BKN045 13/10 Q1000 BECMG SCT012 BKN018
過去の天気等 Google飛行場航空写真 Wunderground天気予報

過去48時間のMETAR

飛行場予報(TAF)
発表時間: 9/26 18:46 CEST (9/26 16:46 UTC)
予報対象時間: 26日20時 CEST ~ 28日2時 CEST
風向・風速北 7m/s
視程10km以上
なし
26日20時 CEST ~ 26日22時 CEST に一時的に
視程6000m
天気現象弱いしゅう雨
全天の4割程度の塔状積雲 雲底高度 550m
全天の8割程度の雲 雲底高度 910m
26日23時 CEST ~ 27日1時 CEST に徐々に
風向・風速北 8m/s 瞬間風速 14m/s
視程6000m
天気現象弱い雨
全天の4割程度の雲 雲底高度 370m
全天の8割程度の雲 雲底高度 550m
27日1時 CEST ~ 27日10時 CEST に 確率 40% で一時的に
視程4000m
天気現象雨霧雨
全天の8割程度の雲 雲底高度 210m
全天を覆う雲 雲底高度 370m
27日9時 CEST ~ 27日11時 CEST に徐々に
風向・風速北北東 7m/s
視程10km以上
天気現象運行に影響にある天気現象が終了
全天の4割程度の雲 雲底高度 610m
全天の4割程度の雲 雲底高度 910m
27日14時 CEST ~ 27日17時 CEST に徐々に
風向・風速北東 4m/s
27日23時 CEST から 確率 30% で
視程4000m
天気現象もや
TAF EHAM 261646Z 2618/2724 35013KT CAVOK
TEMPO 2618/2620 6000 -SHRA SCT018TCU BKN030
BECMG 2621/2623 35015G28KT 6000 -RA SCT012 BKN018
PROB40 TEMPO 2623/2708 4000 RADZ BKN007 OVC012
BECMG 2707/2709 03013KT 9999 NSW SCT020 SCT030
BECMG 2712/2715 05007KT
PROB30 2721/2724 4000 BR